Time;durP1;ratioP1;P1;durP2;ratioP2;P2;SDS_P1;SDS_P2;PMS_P1;PMS_P2;Temp;Humidity;BMP_temperature;BMP_pressure;BME280_temperature;BME280_humidity;BME280_pressure;Samples;Min_cycle;Max_cycle;Signal;HPM_P1;HPM_P2
2024/04/12 00:01:26;;;;;;;15.73;9.57;;;;;;;11.73;100.00;103194.66;5527264;25;19996;-77
2024/04/12 00:03:53;;;;;;;15.63;8.82;;;;;;;11.70;100.00;103194.84;5527433;25;19997;-77
2024/04/12 00:06:18;;;;;;;13.40;8.15;;;;;;;11.70;100.00;103186.84;5526554;25;20020;-78
2024/04/12 00:09:00;;;;;;;12.80;8.10;;;;;;;11.72;100.00;103182.31;5559853;25;20365;-79
2024/04/12 00:11:42;;;;;;;;;;;;;;;;;;;;;
2024/04/12 00:14:08;;;;;;;16.13;8.93;;;;;;;11.70;100.00;103184.19;5558894;25;20297;-79
2024/04/12 00:16:38;;;;;;;16.55;9.18;;;;;;;11.73;100.00;103180.50;5494144;25;20220;-79
2024/04/12 00:19:12;;;;;;;12.70;8.18;;;;;;;11.70;100.00;103175.34;5557838;25;19996;-79
2024/04/12 00:21:41;;;;;;;15.52;9.25;;;;;;;11.73;100.00;103172.47;5557384;25;20020;-79
2024/04/12 00:24:11;;;;;;;13.07;8.73;;;;;;;11.72;100.00;103171.63;5524488;25;19996;-79
2024/04/12 00:26:46;;;;;;;14.60;8.73;;;;;;;11.73;100.00;103160.00;5557395;25;20490;-79
2024/04/12 00:29:36;;;;;;;13.07;9.32;;;;;;;11.75;100.00;103168.78;5527850;25;20001;-77
2024/04/12 00:32:05;;;;;;;13.15;8.73;;;;;;;11.76;100.00;103167.84;5529988;25;20008;-78
2024/04/12 00:34:47;;;;;;;14.73;8.73;;;;;;;11.77;100.00;103163.38;5557233;25;20001;-79
2024/04/12 00:37:15;;;;;;;14.75;9.20;;;;;;;11.78;100.00;103163.28;5524849;25;20008;-78
2024/04/12 00:39:47;;;;;;;13.52;9.38;;;;;;;11.77;100.00;103158.88;5557395;25;19993;-79
2024/04/12 00:42:13;;;;;;;13.55;9.57;;;;;;;11.79;100.00;103157.00;5557780;25;20037;-79
2024/04/12 00:44:41;;;;;;;14.80;9.68;;;;;;;11.78;100.00;103147.28;5557193;25;20004;-78
2024/04/12 00:47:16;;;;;;;13.95;9.95;;;;;;;11.80;100.00;103139.19;5557933;25;20100;-78
2024/04/12 00:49:49;;;;;;;17.35;10.63;;;;;;;11.81;100.00;103132.91;5560561;25;20005;-79
2024/04/12 00:52:27;;;;;;;13.82;10.30;;;;;;;11.81;100.00;103131.09;5528205;25;19993;-79
2024/04/12 00:55:03;;;;;;;12.77;9.82;;;;;;;11.78;100.00;103127.75;5561431;25;20063;-78
2024/04/12 00:57:35;;;;;;;16.63;10.60;;;;;;;11.80;100.00;103131.19;5560862;25;20107;-78
2024/04/12 01:00:08;;;;;;;15.90;10.60;;;;;;;11.80;100.00;103125.84;5528301;25;20001;-78
2024/04/12 01:02:39;;;;;;;15.52;10.40;;;;;;;11.79;100.00;103129.44;5529508;25;20000;-79
2024/04/12 01:05:04;;;;;;;13.95;9.82;;;;;;;11.77;100.00;103134.88;5528181;25;20045;-78
2024/04/12 01:07:30;;;;;;;13.52;10.00;;;;;;;11.78;100.00;103133.09;5561823;25;19997;-74
2024/04/12 01:09:57;;;;;;;14.65;10.35;;;;;;;11.79;100.00;103134.78;5532954;25;19993;-73
2024/04/12 01:12:23;;;;;;;14.07;9.68;;;;;;;11.78;100.00;103131.28;5564810;25;20004;-75
2024/04/12 01:14:50;;;;;;;12.80;9.02;;;;;;;11.77;100.00;103148.22;5564636;25;20004;-73
2024/04/12 01:17:17;;;;;;;11.27;8.98;;;;;;;11.77;100.00;103144.69;5564839;25;20072;-73
2024/04/12 01:19:46;;;;;;;13.57;9.80;;;;;;;11.78;100.00;103139.25;5564942;25;20005;-75
2024/04/12 01:22:12;;;;;;;12.35;8.57;;;;;;;11.81;100.00;103139.09;5564659;25;20004;-75
2024/04/12 01:24:39;;;;;;;14.05;9.30;;;;;;;11.80;100.00;103128.50;5564521;25;19992;-75
2024/04/12 01:27:06;;;;;;;13.00;9.93;;;;;;;11.80;100.00;103117.84;5565497;25;20003;-73
2024/04/12 01:29:31;;;;;;;12.63;9.23;;;;;;;11.79;100.00;103114.31;5532732;25;20033;-74
2024/04/12 01:31:57;;;;;;;14.50;9.82;;;;;;;11.81;100.00;103112.41;5565284;25;19992;-75
2024/04/12 01:34:22;;;;;;;13.55;10.05;;;;;;;11.82;100.00;103105.25;5532255;25;19993;-74
2024/04/12 01:36:51;;;;;;;14.13;9.60;;;;;;;11.79;100.00;103122.31;5564660;25;19993;-73
2024/04/12 01:39:17;;;;;;;12.27;9.63;;;;;;;11.78;100.00;103106.41;5533350;25;19997;-73
2024/04/12 01:41:44;;;;;;;15.10;10.05;;;;;;;11.78;100.00;103117.09;5532013;25;20325;-73
2024/04/12 01:44:12;;;;;;;14.73;10.13;;;;;;;11.78;100.00;103117.09;5565334;25;20350;-73
2024/04/12 01:46:39;;;;;;;15.45;9.98;;;;;;;11.78;100.00;103117.94;5564547;25;20008;-74
2024/04/12 01:49:05;;;;;;;14.75;10.30;;;;;;;11.78;100.00;103125.09;5531798;25;19993;-73
2024/04/12 01:51:34;;;;;;;14.88;9.82;;;;;;;11.82;100.00;103121.25;5564463;25;20352;-73
2024/04/12 01:54:13;;;;;;;16.95;10.82;;;;;;;11.85;100.00;103122.91;5564522;25;19993;-73
2024/04/12 01:56:47;;;;;;;15.40;11.18;;;;;;;11.85;100.00;103118.41;5564710;25;20020;-73
2024/04/12 01:59:20;;;;;;;16.52;10.48;;;;;;;11.85;100.00;103113.06;5563786;25;20318;-73
2024/04/12 02:01:45;;;;;;;15.98;10.50;;;;;;;11.87;100.00;103112.97;5531342;25;20007;-73
2024/04/12 02:04:15;;;;;;;19.02;11.40;;;;;;;11.86;100.00;103104.13;5564283;25;20001;-73
2024/04/12 02:06:42;;;;;;;18.00;11.63;;;;;;;11.85;100.00;103114.88;5564531;25;20003;-73
2024/04/12 02:09:14;;;;;;;19.48;11.85;;;;;;;11.85;100.00;103120.22;5531870;25;20319;-74
2024/04/12 02:11:40;;;;;;;18.40;12.20;;;;;;;11.82;100.00;103123.94;5564334;25;20461;-73
2024/04/12 02:14:05;;;;;;;22.38;12.63;;;;;;;11.82;100.00;103122.13;5564451;25;19993;-74
2024/04/12 02:16:31;;;;;;;20.13;12.07;;;;;;;11.83;100.00;103126.50;5564340;25;20008;-73
2024/04/12 02:18:56;;;;;;;19.48;12.07;;;;;;;11.82;100.00;103126.59;5563816;25;20061;-73
2024/04/12 02:21:22;;;;;;;21.70;11.95;;;;;;;11.83;100.00;103133.66;5564327;25;20007;-73
2024/04/12 02:23:48;;;;;;;20.15;12.32;;;;;;;11.81;100.00;103119.56;5564460;25;19997;-73
2024/04/12 02:26:15;;;;;;;21.15;12.18;;;;;;;11.80;100.00;103108.00;5563593;25;20084;-73
2024/04/12 02:28:42;;;;;;;22.50;13.05;;;;;;;11.81;100.00;103116.91;5564244;25;19996;-73
2024/04/12 02:31:10;;;;;;;22.50;13.15;;;;;;;11.79;100.00;103101.00;5564208;25;19997;-72
2024/04/12 02:33:35;;;;;;;24.15;13.90;;;;;;;11.77;100.00;103094.88;5531034;25;20369;-73
2024/04/12 02:36:11;;;;;;;26.83;13.48;;;;;;;11.77;100.00;103099.34;5563880;25;20068;-73
2024/04/12 02:38:38;;;;;;;27.88;14.18;;;;;;;11.76;100.00;103097.63;5564411;25;20004;-73
2024/04/12 02:41:04;;;;;;;24.77;13.95;;;;;;;11.76;100.00;103108.28;5563820;25;20005;-73
2024/04/12 02:43:30;;;;;;;25.27;13.27;;;;;;;11.75;100.00;103104.78;5563835;25;20414;-74
2024/04/12 02:46:00;;;;;;;22.02;12.77;;;;;;;11.76;100.00;103110.97;5563653;25;20003;-73
2024/04/12 02:48:28;;;;;;;29.57;14.10;;;;;;;11.76;100.00;103103.84;5564438;25;19993;-74
2024/04/12 02:50:55;;;;;;;24.00;13.10;;;;;;;11.75;100.00;103106.59;5563785;25;20269;-74
2024/04/12 02:53:22;;;;;;;24.35;13.77;;;;;;;11.74;100.00;103102.22;5563813;25;20004;-74
2024/04/12 02:56:08;;;;;;;23.45;12.63;;;;;;;11.74;100.00;103097.72;5563873;25;19988;-73
2024/04/12 02:58:44;;;;;;;23.65;11.93;;;;;;;11.73;100.00;103101.31;5564050;25;19993;-72
2024/04/12 03:01:23;;;;;;;22.00;12.10;;;;;;;11.72;100.00;103107.63;5564314;25;19993;-74
2024/04/12 03:03:51;;;;;;;23.23;11.43;;;;;;;11.70;100.00;103098.84;5530636;25;20003;-75
2024/04/12 03:06:20;;;;;;;19.20;11.25;;;;;;;11.70;100.00;103087.31;5530479;25;20008;-73
2024/04/12 03:08:49;;;;;;;18.70;10.55;;;;;;;11.69;100.00;103096.28;5563290;25;19996;-73
2024/04/12 03:11:23;;;;;;;19.85;10.90;;;;;;;11.65;100.00;103095.59;5562050;25;20339;-72
2024/04/12 03:13:52;;;;;;;18.50;10.32;;;;;;;11.60;100.00;103079.88;5563670;25;20329;-72
2024/04/12 03:16:21;;;;;;;17.73;10.32;;;;;;;11.54;100.00;103076.72;5530502;25;20324;-73
2024/04/12 03:18:51;;;;;;;22.20;10.95;;;;;;;11.51;100.00;103091.09;5563152;25;19992;-73
2024/04/12 03:21:26;;;;;;;20.42;10.88;;;;;;;11.52;100.00;103086.63;5563540;25;20428;-75
2024/04/12 03:23:52;;;;;;;19.67;10.50;;;;;;;11.53;100.00;103091.84;5563190;25;20023;-73
2024/04/12 03:26:21;;;;;;;23.08;11.10;;;;;;;11.54;100.00;103084.69;5562928;25;20032;-73
2024/04/12 03:28:49;;;;;;;17.58;9.43;;;;;;;11.54;100.00;103082.03;5530708;25;20004;-73
2024/04/12 03:31:17;;;;;;;18.40;9.65;;;;;;;11.57;100.00;103093.41;5563598;25;20001;-73
2024/04/12 03:33:43;;;;;;;13.88;8.75;;;;;;;11.59;100.00;103082.66;5563082;25;20067;-76
2024/04/12 03:36:40;;;;;;;15.52;8.70;;;;;;;11.56;100.00;103075.69;5563571;25;20005;-74
2024/04/12 03:41:50;;;;;;;15.38;8.07;;;;;;;11.58;100.00;103078.25;5534092;25;20020;-74
2024/04/12 03:44:18;;;;;;;;;;;;;;;11.55;100.00;103068.63;5563516;25;19997;-73
2024/04/12 03:46:50;;;;;;;15.70;7.90;;;;;;;11.57;100.00;103072.06;5562699;25;20239;-73
2024/04/12 03:49:20;;;;;;;11.70;7.03;;;;;;;11.56;100.00;103064.16;5563557;25;20040;-73
2024/04/12 03:51:47;;;;;;;13.80;7.35;;;;;;;11.56;100.00;103064.16;5562933;25;20113;-74
2024/04/12 03:54:17;;;;;;;16.77;8.02;;;;;;;11.55;100.00;103075.75;5562841;25;20396;-73
2024/04/12 03:56:44;;;;;;;12.95;7.63;;;;;;;11.57;100.00;103077.41;5562957;25;20007;-73
2024/04/12 03:59:09;;;;;;;15.15;7.70;;;;;;;11.57;100.00;103069.41;5563691;25;20461;-73
2024/04/12 04:01:36;;;;;;;13.57;7.85;;;;;;;11.58;100.00;103080.91;5562599;25;20004;-74
2024/04/12 04:04:10;;;;;;;14.35;7.55;;;;;;;11.56;100.00;103077.50;5562604;25;19996;-74
2024/04/12 04:06:36;;;;;;;13.15;7.53;;;;;;;11.59;100.00;103067.50;5564363;25;20024;-74
2024/04/12 04:09:05;;;;;;;12.63;6.80;;;;;;;11.60;100.00;103069.22;5563596;25;20103;-74
2024/04/12 04:11:34;;;;;;;13.02;6.88;;;;;;;11.58;100.00;103071.09;5562629;25;20088;-74
2024/04/12 04:14:08;;;;;;;10.05;6.80;;;;;;;11.59;100.00;103067.50;5562413;25;20001;-74
2024/04/12 04:16:36;;;;;;;17.60;6.90;;;;;;;11.59;100.00;103063.97;5562614;25;19997;-72
2024/04/12 04:19:10;;;;;;;14.55;7.35;;;;;;;11.58;100.00;103063.09;5562243;25;20000;-73
2024/04/12 04:21:38;;;;;;;9.60;6.53;;;;;;;11.58;100.00;103056.91;5562984;25;20090;-74
2024/04/12 04:24:08;;;;;;;9.77;6.82;;;;;;;11.56;100.00;103062.34;5565925;25;19996;-72
2024/04/12 04:26:41;;;;;;;15.60;6.93;;;;;;;11.55;100.00;103055.28;5565728;25;20004;-72
2024/04/12 04:29:09;;;;;;;10.43;6.20;;;;;;;11.55;100.00;103057.09;5566522;25;20016;-72
2024/04/12 04:31:45;;;;;;;12.40;6.75;;;;;;;11.58;100.00;103056.91;5566581;25;20011;-73
2024/04/12 04:34:12;;;;;;;11.10;6.03;;;;;;;11.57;100.00;103048.06;5566718;25;20000;-73
2024/04/12 04:36:39;;;;;;;11.15;6.47;;;;;;;11.56;100.00;103043.69;5566046;25;19989;-73
2024/04/12 04:39:06;;;;;;;12.77;5.68;;;;;;;11.55;100.00;103044.63;5565483;25;20004;-74
2024/04/12 04:41:32;;;;;;;8.02;5.60;;;;;;;11.55;100.00;103051.78;5566142;25;19993;-74
2024/04/12 04:43:59;;;;;;;11.23;5.80;;;;;;;11.52;100.00;103047.47;5565378;25;19997;-73
2024/04/12 04:46:27;;;;;;;10.20;5.20;;;;;;;11.52;100.00;103044.81;5533425;25;19997;-73
2024/04/12 04:48:56;;;;;;;11.18;5.57;;;;;;;11.50;100.00;103040.53;5566177;25;20000;-75
2024/04/12 04:51:24;;;;;;;9.27;5.55;;;;;;;11.46;100.00;103032.72;5566451;25;20111;-73
2024/04/12 04:53:52;;;;;;;12.70;5.47;;;;;;;11.41;100.00;103026.78;5565911;25;20038;-74
2024/04/12 04:56:24;;;;;;;8.10;4.35;;;;;;;11.37;100.00;103021.75;5565815;25;20063;-73
2024/04/12 04:58:52;;;;;;;10.98;5.10;;;;;;;11.31;100.00;103025.63;5565713;25;19993;-74
2024/04/12 05:01:18;;;;;;;11.15;5.10;;;;;;;11.25;100.00;103018.00;5565972;25;20422;-75
2024/04/12 05:03:49;;;;;;;12.70;4.93;;;;;;;11.18;100.00;103024.63;5565613;25;20028;-73
2024/04/12 05:06:24;;;;;;;10.05;5.10;;;;;;;11.13;100.00;103026.72;5565683;25;20298;-74
2024/04/12 05:08:52;;;;;;;11.85;5.30;;;;;;;11.07;100.00;103019.94;5565964;25;20004;-73
2024/04/12 05:11:18;;;;;;;12.13;5.90;;;;;;;11.05;100.00;103020.00;5565605;25;19993;-73
2024/04/12 05:13:49;;;;;;;9.45;4.75;;;;;;;11.06;100.00;103021.75;5533122;25;20413;-73
2024/04/12 05:16:15;;;;;;;;;;;;;;;11.08;100.00;103019.00;5566278;25;20000;-73
2024/04/12 05:18:44;;;;;;;14.05;5.35;;;;;;;11.08;100.00;103030.50;5565254;25;19950;-73
2024/04/12 05:21:13;;;;;;;13.13;5.80;;;;;;;11.06;100.00;103021.75;5565331;25;19989;-73
2024/04/12 05:23:39;;;;;;;13.10;5.47;;;;;;;11.08;100.00;103021.66;5565304;25;19992;-74
2024/04/12 05:26:05;;;;;;;11.15;6.32;;;;;;;11.13;100.00;103027.56;5565123;25;20024;-73
2024/04/12 05:28:30;;;;;;;10.63;6.22;;;;;;;11.19;100.00;103021.88;5565196;25;19993;-73
2024/04/12 05:30:56;;;;;;;13.05;6.38;;;;;;;11.24;100.00;103022.47;5565656;25;20003;-74
2024/04/12 05:33:23;;;;;;;12.73;5.70;;;;;;;11.31;100.00;103020.28;5564726;25;20305;-75
2024/04/12 05:35:48;;;;;;;11.70;6.22;;;;;;;11.35;100.00;103019.16;5564697;25;20021;-74
2024/04/12 05:38:20;;;;;;;13.23;6.70;;;;;;;11.35;100.00;103023.66;5565343;25;19999;-74
2024/04/12 05:40:51;;;;;;;14.30;6.78;;;;;;;11.35;100.00;103029.81;5565192;25;19993;-74
2024/04/12 05:43:17;;;;;;;12.88;6.40;;;;;;;11.37;100.00;103035.06;5565255;25;19984;-74
2024/04/12 05:45:50;;;;;;;15.18;6.32;;;;;;;11.38;100.00;103040.31;5565209;25;19993;-74
2024/04/12 05:48:16;;;;;;;12.02;6.50;;;;;;;11.40;100.00;103050.88;5565474;25;20343;-74
2024/04/12 05:50:46;;;;;;;11.18;6.35;;;;;;;11.43;100.00;103053.34;5565306;25;19992;-74
2024/04/12 05:53:12;;;;;;;12.95;6.97;;;;;;;11.47;100.00;103058.41;5565259;25;19993;-74
2024/04/12 05:55:52;;;;;;;13.63;6.55;;;;;;;11.50;100.00;103057.38;5565112;25;19997;-73
2024/04/12 05:58:18;;;;;;;12.73;6.85;;;;;;;11.57;100.00;103055.19;5565332;25;19993;-74
2024/04/12 06:00:43;;;;;;;13.05;6.50;;;;;;;11.64;100.00;103060.09;5564530;25;20382;-74
2024/04/12 06:03:14;;;;;;;14.95;6.55;;;;;;;11.75;100.00;103053.25;5564994;25;20004;-74
2024/04/12 06:05:46;;;;;;;17.23;6.80;;;;;;;11.83;100.00;103058.97;5564911;25;19996;-74
2024/04/12 06:08:14;;;;;;;14.63;5.50;;;;;;;11.88;100.00;103064.88;5564686;25;20011;-74
2024/04/12 06:10:44;;;;;;;18.48;6.05;;;;;;;11.93;100.00;103062.81;5564936;25;20026;-74
2024/04/12 06:13:10;;;;;;;14.05;5.82;;;;;;;11.97;100.00;103063.50;5564448;25;20025;-75
2024/04/12 06:15:36;;;;;;;17.60;6.68;;;;;;;12.00;100.00;103052.63;5564421;25;20000;-75
2024/04/12 06:18:05;;;;;;;13.68;5.43;;;;;;;12.01;100.00;103064.19;5564379;25;20000;-74
2024/04/12 06:20:34;;;;;;;13.15;5.85;;;;;;;12.04;100.00;103058.66;5564413;25;20001;-74
2024/04/12 06:22:59;;;;;;;12.38;5.60;;;;;;;12.05;100.00;103057.72;5564075;25;20025;-74
2024/04/12 06:25:28;;;;;;;12.45;5.53;;;;;;;12.06;100.00;103060.28;5563510;25;19997;-75
2024/04/12 06:27:54;;;;;;;17.48;6.03;;;;;;;12.08;100.00;103050.34;5532286;25;20003;-74
2024/04/12 06:30:24;;;;;;;15.45;6.47;;;;;;;12.17;100.00;103051.59;5564314;25;19992;-75
2024/04/12 06:32:50;;;;;;;14.25;5.85;;;;;;;12.23;100.00;103048.53;5564368;25;19996;-75
2024/04/12 06:35:20;;;;;;;11.88;5.30;;;;;;;12.37;100.00;103050.34;5564000;25;20398;-75
2024/04/12 06:37:47;;;;;;;11.98;5.50;;;;;;;12.45;100.00;103045.38;5564495;25;19997;-76
2024/04/12 06:40:15;;;;;;;9.98;4.72;;;;;;;12.52;100.00;103051.19;5563907;25;19993;-75
2024/04/12 06:42:42;;;;;;;14.00;5.60;;;;;;;12.55;100.00;103056.31;5563915;25;20445;-75
2024/04/12 06:45:15;;;;;;;11.85;5.43;;;;;;;12.59;100.00;103057.84;5562903;25;19997;-75
2024/04/12 06:47:41;;;;;;;11.75;5.32;;;;;;;12.71;100.00;103056.19;5530488;25;19990;-74
2024/04/12 06:50:08;;;;;;;14.73;5.35;;;;;;;12.79;100.00;103053.88;5530933;25;20093;-75
2024/04/12 06:52:35;;;;;;;11.57;5.22;;;;;;;12.94;100.00;103057.34;5563539;25;19992;-76
2024/04/12 06:55:01;;;;;;;16.73;5.28;;;;;;;13.07;100.00;103064.59;5563852;25;20445;-74
2024/04/12 06:57:27;;;;;;;10.57;4.88;;;;;;;13.22;100.00;103059.06;5563409;25;19989;-74
2024/04/12 06:59:53;;;;;;;7.65;4.35;;;;;;;13.37;100.00;103059.03;5563816;25;20428;-73
2024/04/12 07:02:26;;;;;;;14.98;4.15;;;;;;;13.48;100.00;103055.63;5563016;25;19996;-76
2024/04/12 07:04:54;;;;;;;13.52;4.68;;;;;;;13.49;100.00;103060.88;5563530;25;20136;-74
2024/04/12 07:07:22;;;;;;;11.98;4.65;;;;;;;13.58;100.00;103060.28;5563195;25;20068;-76
2024/04/12 07:09:57;;;;;;;8.75;4.05;;;;;;;13.66;100.00;103057.06;5563311;25;20004;-76
2024/04/12 07:12:27;;;;;;;12.63;4.18;;;;;;;13.70;100.00;103057.69;5563289;25;20309;-75
2024/04/12 07:14:54;;;;;;;7.25;4.20;;;;;;;13.82;100.00;103050.66;5500633;25;20325;-76
2024/04/12 07:17:20;;;;;;;8.80;3.58;;;;;;;13.95;100.00;103054.19;5563029;25;19989;-76
2024/04/12 07:19:49;;;;;;;6.93;3.17;;;;;;;14.04;100.00;103056.22;5563634;25;19993;-77
2024/04/12 07:22:26;;;;;;;9.05;3.38;;;;;;;14.27;100.00;103062.63;5563067;25;20108;-74
2024/04/12 07:24:53;;;;;;;8.15;3.40;;;;;;;14.39;100.00;103060.91;5563201;25;20000;-76
2024/04/12 07:27:22;;;;;;;5.45;2.30;;;;;;;14.45;100.00;103068.47;5563452;25;19989;-74
2024/04/12 07:29:52;;;;;;;5.82;2.58;;;;;;;14.61;100.00;103073.63;5563978;25;20061;-76
2024/04/12 07:32:22;;;;;;;5.53;2.17;;;;;;;14.73;100.00;103073.69;5563175;25;20000;-78
2024/04/12 07:34:48;;;;;;;9.88;2.70;;;;;;;14.71;100.00;103087.19;5563512;25;20007;-76
2024/04/12 07:37:42;;;;;;;9.60;3.17;;;;;;;14.81;100.00;103080.19;5562984;25;19996;-78
2024/04/12 07:40:20;;;;;;;8.90;2.70;;;;;;;14.88;100.00;103083.28;5562252;25;20292;-75
2024/04/12 07:42:46;;;;;;;6.35;2.80;;;;;;;14.88;100.00;103077.91;5563825;25;19997;-77
2024/04/12 07:45:37;;;;;;;5.68;2.20;;;;;;;14.97;100.00;103085.31;5563037;25;20437;-75
2024/04/12 07:48:22;;;;;;;6.25;2.35;;;;;;;15.01;100.00;103075.19;5562537;25;20004;-75
2024/04/12 07:50:55;;;;;;;6.88;2.70;;;;;;;15.05;100.00;103082.03;5563316;25;19993;-76
2024/04/12 07:53:23;;;;;;;4.55;2.38;;;;;;;15.26;100.00;103081.41;5563909;25;20057;-77
2024/04/12 07:56:09;;;;;;;4.38;2.22;;;;;;;15.25;100.00;103087.75;5562490;25;20325;-75
2024/04/12 07:58:40;;;;;;;7.53;2.53;;;;;;;15.55;100.00;103083.72;5565851;25;19993;-76
2024/04/12 08:01:15;;;;;;;7.30;2.33;;;;;;;15.61;100.00;103083.22;5567276;25;20003;-75
2024/04/12 08:03:41;;;;;;;9.63;2.38;;;;;;;15.74;100.00;103089.38;5566412;25;20417;-78
2024/04/12 08:06:19;;;;;;;5.97;2.10;;;;;;;15.74;100.00;103088.53;5566505;25;19997;-76
2024/04/12 08:08:45;;;;;;;7.05;2.08;;;;;;;15.85;100.00;103078.69;5566264;25;20434;-75
2024/04/12 08:14:07;;;;;;;7.32;2.30;;;;;;;15.81;100.00;103079.06;5567391;25;20037;-75
2024/04/12 08:16:36;;;;;;;14.35;2.65;;;;;;;15.76;100.00;103074.00;5566121;25;20021;-75
2024/04/12 08:19:13;;;;;;;9.90;3.17;;;;;;;15.75;100.00;103071.44;5566499;25;20001;-76
2024/04/12 08:21:44;;;;;;;11.05;2.67;;;;;;;15.79;100.00;103081.00;5566846;25;19992;-76
2024/04/12 08:24:14;;;;;;;12.27;2.63;;;;;;;15.83;100.00;103079.78;5566571;25;20008;-74
2024/04/12 08:26:46;;;;;;;10.10;2.42;;;;;;;15.94;100.00;103082.47;5533477;25;20004;-75
2024/04/12 08:29:26;;;;;;;5.82;2.45;;;;;;;16.11;100.00;103089.22;5567947;25;19993;-76
2024/04/12 08:34:45;;;;;;;8.13;2.85;;;;;;;16.07;100.00;103081.53;5567530;25;20302;-76
2024/04/12 08:37:14;;;;;;;9.73;2.70;;;;;;;16.07;100.00;103087.75;5567014;25;19992;-75
2024/04/12 08:39:43;;;;;;;7.32;2.58;;;;;;;16.29;100.00;103078.00;5566677;25;20425;-75
2024/04/12 08:42:11;;;;;;;10.10;3.20;;;;;;;16.26;100.00;103079.09;5567278;25;19996;-76
2024/04/12 08:44:46;;;;;;;10.13;2.80;;;;;;;16.62;100.00;103081.63;5566076;25;19996;-75
2024/04/12 08:47:16;;;;;;;7.03;2.40;;;;;;;16.84;100.00;103080.72;5566692;25;20064;-75
2024/04/12 08:49:48;;;;;;;10.52;3.13;;;;;;;17.03;100.00;103093.53;5565923;25;20461;-76
2024/04/12 08:52:28;;;;;;;5.63;2.30;;;;;;;17.20;100.00;103079.53;5566138;25;20417;-75
2024/04/12 08:54:55;;;;;;;10.02;2.60;;;;;;;17.72;100.00;103076.97;5565951;25;19997;-76
2024/04/12 08:57:24;;;;;;;9.18;2.30;;;;;;;18.13;100.00;103077.06;5565827;25;19996;-75
2024/04/12 08:59:51;;;;;;;7.63;2.00;;;;;;;18.84;100.00;103073.47;5565999;25;20140;-76
2024/04/12 09:02:23;;;;;;;4.70;1.85;;;;;;;19.55;100.00;103078.59;5565857;25;20032;-76
2024/04/12 09:04:48;;;;;;;9.48;2.20;;;;;;;19.72;100.00;103081.53;5566049;25;19993;-75
2024/04/12 09:07:14;;;;;;;4.20;1.70;;;;;;;19.43;100.00;103077.03;5565654;25;20060;-76
2024/04/12 09:09:45;;;;;;;9.32;2.10;;;;;;;19.48;100.00;103073.91;5564056;25;20056;-76
2024/04/12 09:12:12;;;;;;;7.03;2.20;;;;;;;19.74;100.00;103085.81;5565544;25;20025;-75
2024/04/12 09:14:41;;;;;;;7.22;1.80;;;;;;;20.37;100.00;103083.50;5532638;25;20018;-75
2024/04/12 09:17:16;;;;;;;7.63;1.85;;;;;;;20.72;100.00;103084.59;5565081;25;20007;-75
2024/04/12 09:19:41;;;;;;;5.05;1.88;;;;;;;20.68;100.00;103088.63;5566117;25;20033;-76
2024/04/12 09:22:10;;;;;;;7.68;2.13;;;;;;;20.89;100.00;103096.47;5565332;25;20001;-75
2024/04/12 09:24:39;;;;;;;6.15;2.05;;;;;;;20.94;100.00;103097.72;5565108;25;19993;-76
2024/04/12 09:27:09;;;;;;;4.57;1.80;;;;;;;21.01;100.00;103105.22;5565721;25;20396;-76
2024/04/12 09:29:43;;;;;;;5.75;1.67;;;;;;;20.81;100.00;103096.38;5532736;25;20018;-75
2024/04/12 09:34:58;;;;;;;7.97;1.90;;;;;;;21.37;100.00;103095.22;5566405;25;20056;-75
2024/04/12 09:37:30;;;;;;;3.97;1.92;;;;;;;21.53;100.00;103097.25;5533305;25;19996;-75
2024/04/12 09:40:04;;;;;;;4.53;1.88;;;;;;;22.19;100.00;103106.66;5534028;25;19997;-74
2024/04/12 09:42:45;;;;;;;7.30;1.80;;;;;;;23.16;100.00;103102.78;5565604;25;20033;-77
2024/04/12 09:45:20;;;;;;;3.65;1.38;;;;;;;22.91;100.00;103104.56;5565506;25;20068;-76
2024/04/12 10:37:54;;;;;;;6.68;1.70;;;;;;;23.78;100.00;103096.78;5565699;25;20007;-75
2024/04/12 10:40:21;;;;;;;8.07;1.90;;;;;;;23.87;100.00;103097.66;5564471;25;20061;-75
2024/04/12 10:42:52;;;;;;;8.98;2.10;;;;;;;23.47;100.00;103104.81;5564227;25;19989;-74
2024/04/12 10:45:17;;;;;;;8.43;1.90;;;;;;;23.42;100.00;103108.03;5563953;25;20000;-74
2024/04/12 10:47:44;;;;;;;7.95;1.95;;;;;;;23.59;100.00;103088.00;5531175;25;20005;-75
2024/04/12 10:50:10;;;;;;;8.77;1.88;;;;;;;23.64;100.00;103103.78;5563917;25;20012;-75
2024/04/12 10:52:38;;;;;;;7.43;2.20;;;;;;;23.35;100.00;103102.44;5564270;25;20016;-76
2024/04/12 10:55:10;;;;;;;7.47;2.35;;;;;;;23.08;100.00;103090.00;5563889;25;20004;-76
2024/04/12 10:57:40;;;;;;;11.10;2.33;;;;;;;22.96;100.00;103102.19;5564110;25;20131;-74
2024/04/12 11:00:07;;;;;;;5.55;1.77;;;;;;;22.84;100.00;103104.38;5563790;25;20052;-76
2024/04/12 11:02:33;;;;;;;4.18;1.50;;;;;;;23.30;100.00;103093.94;5531718;25;20083;-77
2024/04/12 11:07:53;;;;;;;9.30;2.10;;;;;;;23.91;100.00;103091.69;5564961;25;19996;-78
2024/04/12 11:10:24;;;;;;;5.13;2.10;;;;;;;23.40;100.00;103088.34;5564999;25;19997;-75
2024/04/12 11:13:06;;;;;;;7.20;1.95;;;;;;;23.85;100.00;103096.97;5563651;25;20004;-81
2024/04/12 11:31:52;;;;;;;5.90;1.75;;;;;;;24.38;100.00;103076.41;5563701;25;20069;-75
2024/04/12 11:34:25;;;;;;;5.93;1.75;;;;;;;23.84;100.00;103078.94;5530942;25;20366;-82
2024/04/12 11:36:53;;;;;;;7.00;1.60;;;;;;;23.88;100.00;103064.03;5531445;25;19997;-79
2024/04/12 11:39:25;;;;;;;4.70;1.45;;;;;;;23.52;100.00;103069.84;5563226;25;19993;-76
2024/04/12 11:41:52;;;;;;;6.97;2.05;;;;;;;23.10;100.00;103066.28;5564390;25;19996;-81
2024/04/12 11:44:18;;;;;;;7.63;1.55;;;;;;;22.59;100.00;103074.47;5530674;25;19993;-72
2024/04/12 11:46:55;;;;;;;12.20;1.83;;;;;;;22.44;100.00;103070.72;5530508;25;20320;-83
2024/04/12 11:49:25;;;;;;;8.38;1.77;;;;;;;22.54;100.00;103076.81;5567615;25;19997;-79
2024/04/12 11:51:57;;;;;;;11.95;2.25;;;;;;;23.13;100.00;103081.41;5565507;25;20289;-82
2024/04/12 11:54:29;;;;;;;12.40;1.98;;;;;;;23.21;100.00;103074.09;5563253;25;20480;-81
2024/04/12 11:56:55;;;;;;;10.15;1.77;;;;;;;23.92;100.00;103082.53;5562928;25;20060;-83
2024/04/12 11:59:21;;;;;;;5.03;1.75;;;;;;;23.14;100.00;103083.06;5563409;25;20003;-80
2024/04/12 12:01:46;;;;;;;6.05;1.50;;;;;;;23.62;100.00;103072.34;5562825;25;19993;-83
2024/04/12 12:04:12;;;;;;;4.57;1.67;;;;;;;24.30;100.00;103068.28;5529582;25;19993;-81
2024/04/12 12:06:38;;;;;;;10.50;2.20;;;;;;;24.68;100.00;103084.78;5562503;25;20300;-80
2024/04/12 12:09:11;;;;;;;7.40;2.10;;;;;;;24.91;100.00;103068.47;5530663;25;20000;-84
2024/04/12 12:11:42;;;;;;;5.18;1.50;;;;;;;24.54;100.00;103077.34;5562995;25;20016;-80
2024/04/12 12:14:08;;;;;;;5.38;1.40;;;;;;;24.04;100.00;103057.69;5563488;25;19993;-84
2024/04/12 12:16:33;;;;;;;8.98;1.73;;;;;;;23.93;100.00;103072.50;5562517;25;20008;-83
2024/04/12 12:18:59;;;;;;;5.10;1.40;;;;;;;23.79;100.00;103065.88;5498527;25;19993;-88
2024/04/12 12:21:25;;;;;;;4.97;1.40;;;;;;;23.33;100.00;103052.03;5562911;25;20008;-80
2024/04/12 12:23:50;;;;;;;7.72;1.50;;;;;;;23.47;100.00;103040.47;5562379;25;20011;-80
2024/04/12 12:26:16;;;;;;;2.97;1.15;;;;;;;24.23;100.00;103049.13;5562055;25;20008;-83
2024/04/12 12:28:41;;;;;;;2.72;1.35;;;;;;;23.80;100.00;103042.28;5562715;25;20421;-85
2024/04/12 12:31:07;;;;;;;4.38;1.35;;;;;;;23.27;100.00;103034.53;5562463;25;20022;-82
2024/04/12 12:33:38;;;;;;;2.67;1.20;;;;;;;22.76;100.00;103039.25;5562678;25;20129;-80
2024/04/12 12:36:05;;;;;;;;;;;;;;;22.57;100.00;103035.78;5562953;25;19997;-82
2024/04/12 12:38:34;;;;;;;5.18;1.83;;;;;;;22.47;100.00;103035.13;5562920;25;19930;-82
2024/04/12 12:40:59;;;;;;;8.77;1.38;;;;;;;21.70;100.00;103041.34;5562384;25;20021;-82
2024/04/12 12:43:28;;;;;;;11.27;1.60;;;;;;;21.69;100.00;103039.66;5563396;25;20003;-82